sensor_id;sensor_type;location;lat;lon;timestamp;pressure;altitude;pressure_sealevel;temperature;humidity
13422;BME280;6782;55.904;13.396;2023-02-19T00:01:32;100419.19;;;2.05;100.00
13422;BME280;6782;55.904;13.396;2023-02-19T00:04:03;100438.19;;;1.95;100.00
13422;BME280;6782;55.904;13.396;2023-02-19T00:06:32;100446.78;;;1.84;100.00
13422;BME280;6782;55.904;13.396;2023-02-19T00:09:00;100445.88;;;1.79;100.00
13422;BME280;6782;55.904;13.396;2023-02-19T00:11:29;100447.63;;;1.83;100.00
13422;BME280;6782;55.904;13.396;2023-02-19T00:13:58;100448.47;;;1.82;100.00
13422;BME280;6782;55.904;13.396;2023-02-19T00:16:28;100448.47;;;1.76;100.00
13422;BME280;6782;55.904;13.396;2023-02-19T00:18:57;100436.25;;;1.66;100.00
13422;BME280;6782;55.904;13.396;2023-02-19T00:21:27;100422.31;;;1.58;100.00
13422;BME280;6782;55.904;13.396;2023-02-19T00:23:57;100414.47;;;1.51;100.00
13422;BME280;6782;55.904;13.396;2023-02-19T00:26:25;100417.00;;;1.45;100.00
13422;BME280;6782;55.904;13.396;2023-02-19T00:28:55;100433.44;;;1.42;100.00
13422;BME280;6782;55.904;13.396;2023-02-19T00:31:24;100436.00;;;1.36;100.00
13422;BME280;6782;55.904;13.396;2023-02-19T00:33:56;100462.00;;;1.36;100.00
13422;BME280;6782;55.904;13.396;2023-02-19T00:36:26;100467.19;;;1.38;100.00
13422;BME280;6782;55.904;13.396;2023-02-19T00:38:54;100465.41;;;1.34;100.00
13422;BME280;6782;55.904;13.396;2023-02-19T00:41:23;100474.03;;;1.31;100.00
13422;BME280;6782;55.904;13.396;2023-02-19T00:43:52;100477.53;;;1.35;100.00
13422;BME280;6782;55.904;13.396;2023-02-19T00:46:21;100485.25;;;1.27;100.00
13422;BME280;6782;55.904;13.396;2023-02-19T00:48:49;100480.91;;;1.23;100.00
13422;BME280;6782;55.904;13.396;2023-02-19T00:51:17;100482.66;;;1.27;100.00
13422;BME280;6782;55.904;13.396;2023-02-19T00:53:47;100494.00;;;1.35;100.00
13422;BME280;6782;55.904;13.396;2023-02-19T00:56:15;100498.31;;;1.33;100.00
13422;BME280;6782;55.904;13.396;2023-02-19T00:58:42;100499.13;;;1.29;100.00
13422;BME280;6782;55.904;13.396;2023-02-19T01:01:11;100500.00;;;1.31;100.00
13422;BME280;6782;55.904;13.396;2023-02-19T01:03:39;100518.38;;;1.48;100.00
13422;BME280;6782;55.904;13.396;2023-02-19T01:06:08;100508.81;;;1.45;100.00
13422;BME280;6782;55.904;13.396;2023-02-19T01:08:37;100521.22;;;1.73;100.00
13422;BME280;6782;55.904;13.396;2023-02-19T01:11:07;100526.34;;;1.67;100.00
13422;BME280;6782;55.904;13.396;2023-02-19T01:13:35;100524.59;;;1.63;100.00
13422;BME280;6782;55.904;13.396;2023-02-19T01:16:04;100534.09;;;1.61;100.00
13422;BME280;6782;55.904;13.396;2023-02-19T01:18:32;100525.38;;;1.55;100.00
13422;BME280;6782;55.904;13.396;2023-02-19T01:21:04;100540.28;;;1.75;100.00
13422;BME280;6782;55.904;13.396;2023-02-19T01:23:32;100534.13;;;1.64;100.00
13422;BME280;6782;55.904;13.396;2023-02-19T01:26:03;100555.03;;;1.76;100.00
13422;BME280;6782;55.904;13.396;2023-02-19T01:28:32;100549.00;;;1.80;100.00
13422;BME280;6782;55.904;13.396;2023-02-19T01:31:00;100557.63;;;1.76;100.00
13422;BME280;6782;55.904;13.396;2023-02-19T01:33:28;100551.50;;;1.67;100.00
13422;BME280;6782;55.904;13.396;2023-02-19T01:35:55;100562.72;;;1.67;100.00
13422;BME280;6782;55.904;13.396;2023-02-19T01:38:22;100561.97;;;1.76;100.00
13422;BME280;6782;55.904;13.396;2023-02-19T01:40:54;100564.56;;;1.76;100.00
13422;BME280;6782;55.904;13.396;2023-02-19T01:43:21;100569.78;;;1.80;100.00
13422;BME280;6782;55.904;13.396;2023-02-19T01:45:50;100564.53;;;1.71;100.00
13422;BME280;6782;55.904;13.396;2023-02-19T01:48:20;100558.38;;;1.65;100.00
13422;BME280;6782;55.904;13.396;2023-02-19T01:50:51;100554.81;;;1.57;100.00
13422;BME280;6782;55.904;13.396;2023-02-19T01:53:23;100568.69;;;1.57;100.00
13422;BME280;6782;55.904;13.396;2023-02-19T01:55:55;100562.66;;;1.58;100.00
13422;BME280;6782;55.904;13.396;2023-02-19T01:58:25;100574.72;;;1.53;100.00
13422;BME280;6782;55.904;13.396;2023-02-19T02:00:55;100572.97;;;1.51;100.00
13422;BME280;6782;55.904;13.396;2023-02-19T02:03:23;100571.22;;;1.48;100.00
13422;BME280;6782;55.904;13.396;2023-02-19T02:05:55;100574.63;;;1.41;100.00
13422;BME280;6782;55.904;13.396;2023-02-19T02:08:24;100572.75;;;1.28;100.00
13422;BME280;6782;55.904;13.396;2023-02-19T02:11:10;100569.22;;;1.26;100.00
13422;BME280;6782;55.904;13.396;2023-02-19T02:13:38;100567.38;;;1.16;100.00
13422;BME280;6782;55.904;13.396;2023-02-19T02:16:16;100572.47;;;1.07;100.00
13422;BME280;6782;55.904;13.396;2023-02-19T02:18:55;100579.34;;;1.02;100.00
13422;BME280;6782;55.904;13.396;2023-02-19T02:21:45;100579.25;;;0.96;100.00
13422;BME280;6782;55.904;13.396;2023-02-19T02:24:39;100579.16;;;0.87;100.00
13422;BME280;6782;55.904;13.396;2023-02-19T02:27:31;100575.63;;;0.82;100.00
13422;BME280;6782;55.904;13.396;2023-02-19T02:30:38;100571.19;;;0.75;100.00
13422;BME280;6782;55.904;13.396;2023-02-19T02:33:15;100582.38;;;0.71;100.00
13422;BME280;6782;55.904;13.396;2023-02-19T02:35:48;100590.16;;;0.69;100.00
13422;BME280;6782;55.904;13.396;2023-02-19T02:38:20;100586.69;;;0.69;100.00
13422;BME280;6782;55.904;13.396;2023-02-19T02:40:49;100589.16;;;0.59;100.00
13422;BME280;6782;55.904;13.396;2023-02-19T02:43:17;100588.25;;;0.57;100.00
13422;BME280;6782;55.904;13.396;2023-02-19T02:45:45;100600.34;;;0.57;100.00
13422;BME280;6782;55.904;13.396;2023-02-19T02:48:21;100610.00;;;0.64;100.00
13422;BME280;6782;55.904;13.396;2023-02-19T02:50:51;100620.44;;;0.69;100.00
13422;BME280;6782;55.904;13.396;2023-02-19T02:53:23;100622.25;;;0.76;100.00
13422;BME280;6782;55.904;13.396;2023-02-19T02:56:10;100635.25;;;0.77;100.00
13422;BME280;6782;55.904;13.396;2023-02-19T02:58:39;100639.53;;;0.74;100.00
13422;BME280;6782;55.904;13.396;2023-02-19T03:01:11;100642.97;;;0.73;100.00
13422;BME280;6782;55.904;13.396;2023-02-19T03:04:00;100643.84;;;0.72;100.00
13422;BME280;6782;55.904;13.396;2023-02-19T03:06:30;100649.84;;;0.69;100.00
13422;BME280;6782;55.904;13.396;2023-02-19T03:09:01;100658.47;;;0.70;100.00
13422;BME280;6782;55.904;13.396;2023-02-19T03:11:35;100656.59;;;0.59;100.00
13422;BME280;6782;55.904;13.396;2023-02-19T03:14:26;100667.13;;;0.69;100.00
13422;BME280;6782;55.904;13.396;2023-02-19T03:17:25;100674.97;;;0.72;100.00
13422;BME280;6782;55.904;13.396;2023-02-19T03:20:13;100689.94;;;0.91;100.00
13422;BME280;6782;55.904;13.396;2023-02-19T03:22:44;100704.03;;;1.05;100.00
13422;BME280;6782;55.904;13.396;2023-02-19T03:25:15;100694.47;;;1.04;100.00
13422;BME280;6782;55.904;13.396;2023-02-19T03:28:04;100707.50;;;1.07;100.00
13422;BME280;6782;55.904;13.396;2023-02-19T03:30:34;100716.34;;;1.18;100.00
13422;BME280;6782;55.904;13.396;2023-02-19T03:33:08;100718.88;;;1.15;100.00
13422;BME280;6782;55.904;13.396;2023-02-19T03:35:40;100717.00;;;1.05;100.00
13422;BME280;6782;55.904;13.396;2023-02-19T03:38:16;100716.28;;;1.15;100.00
13422;BME280;6782;55.904;13.396;2023-02-19T03:40:52;100734.63;;;1.28;100.00
13422;BME280;6782;55.904;13.396;2023-02-19T03:43:26;100728.59;;;1.31;100.00
13422;BME280;6782;55.904;13.396;2023-02-19T03:46:05;100733.84;;;1.34;100.00
13422;BME280;6782;55.904;13.396;2023-02-19T03:48:40;100739.00;;;1.31;100.00
13422;BME280;6782;55.904;13.396;2023-02-19T03:51:23;100731.97;;;1.24;100.00
13422;BME280;6782;55.904;13.396;2023-02-19T03:54:00;100744.34;;;1.42;100.00
13422;BME280;6782;55.904;13.396;2023-02-19T03:56:34;100744.19;;;1.28;100.00
13422;BME280;6782;55.904;13.396;2023-02-19T03:59:08;100735.41;;;1.20;100.00
13422;BME280;6782;55.904;13.396;2023-02-19T04:01:40;100736.19;;;1.14;100.00
13422;BME280;6782;55.904;13.396;2023-02-19T04:04:16;100737.28;;;1.30;100.00
13422;BME280;6782;55.904;13.396;2023-02-19T04:06:51;100733.69;;;1.22;100.00
13422;BME280;6782;55.904;13.396;2023-02-19T04:09:21;100734.53;;;1.19;100.00
13422;BME280;6782;55.904;13.396;2023-02-19T04:11:50;100731.97;;;1.24;100.00
13422;BME280;6782;55.904;13.396;2023-02-19T04:14:21;100738.88;;;1.22;100.00
13422;BME280;6782;55.904;13.396;2023-02-19T04:16:55;100738.03;;;1.23;100.00
13422;BME280;6782;55.904;13.396;2023-02-19T04:19:28;100726.72;;;1.18;100.00
13422;BME280;6782;55.904;13.396;2023-02-19T04:21:57;100738.09;;;1.29;100.00
13422;BME280;6782;55.904;13.396;2023-02-19T04:24:30;100749.38;;;1.28;100.00
13422;BME280;6782;55.904;13.396;2023-02-19T04:26:58;100742.50;;;1.33;100.00
13422;BME280;6782;55.904;13.396;2023-02-19T04:29:26;100742.66;;;1.45;100.00
13422;BME280;6782;55.904;13.396;2023-02-19T04:31:53;100746.16;;;1.47;100.00
13422;BME280;6782;55.904;13.396;2023-02-19T04:34:21;100753.16;;;1.54;100.00
13422;BME280;6782;55.904;13.396;2023-02-19T04:36:50;100751.47;;;1.56;100.00
13422;BME280;6782;55.904;13.396;2023-02-19T04:39:17;100760.97;;;1.53;100.00
13422;BME280;6782;55.904;13.396;2023-02-19T04:41:45;100751.41;;;1.52;100.00
13422;BME280;6782;55.904;13.396;2023-02-19T04:44:12;100740.91;;;1.41;100.00
13422;BME280;6782;55.904;13.396;2023-02-19T04:46:39;100757.41;;;1.46;100.00
13422;BME280;6782;55.904;13.396;2023-02-19T04:49:06;100742.50;;;1.33;100.00
13422;BME280;6782;55.904;13.396;2023-02-19T04:51:33;100755.72;;;1.48;100.00
13422;BME280;6782;55.904;13.396;2023-02-19T04:54:01;100752.19;;;1.45;100.00
13422;BME280;6782;55.904;13.396;2023-02-19T04:56:29;100762.78;;;1.58;100.00
13422;BME280;6782;55.904;13.396;2023-02-19T04:58:56;100744.19;;;1.31;100.00
13422;BME280;6782;55.904;13.396;2023-02-19T05:01:23;100737.19;;;1.24;100.00
13422;BME280;6782;55.904;13.396;2023-02-19T05:03:51;100738.09;;;1.29;100.00
13422;BME280;6782;55.904;13.396;2023-02-19T05:06:18;100744.38;;;1.43;100.00
13422;BME280;6782;55.904;13.396;2023-02-19T05:08:45;100727.72;;;1.29;100.00
13422;BME280;6782;55.904;13.396;2023-02-19T05:11:13;100733.78;;;1.28;100.00
13422;BME280;6782;55.904;13.396;2023-02-19T05:13:40;100734.56;;;1.24;100.00
13422;BME280;6782;55.904;13.396;2023-02-19T05:16:09;100725.84;;;1.19;100.00
13422;BME280;6782;55.904;13.396;2023-02-19T05:18:38;100725.84;;;1.19;100.00
13422;BME280;6782;55.904;13.396;2023-02-19T05:21:05;100724.88;;;1.11;100.00
13422;BME280;6782;55.904;13.396;2023-02-19T05:23:32;100733.63;;;1.19;100.00
13422;BME280;6782;55.904;13.396;2023-02-19T05:26:04;100730.16;;;1.17;100.00
13422;BME280;6782;55.904;13.396;2023-02-19T05:28:33;100731.97;;;1.22;100.00
13422;BME280;6782;55.904;13.396;2023-02-19T05:31:04;100726.56;;;1.09;100.00
13422;BME280;6782;55.904;13.396;2023-02-19T05:33:32;100723.19;;;1.13;100.00
13422;BME280;6782;55.904;13.396;2023-02-19T05:36:04;100723.19;;;1.16;100.00
13422;BME280;6782;55.904;13.396;2023-02-19T05:38:31;100715.28;;;1.07;100.00
13422;BME280;6782;55.904;13.396;2023-02-19T05:41:06;100724.03;;;1.13;100.00
13422;BME280;6782;55.904;13.396;2023-02-19T05:43:35;100727.44;;;1.09;100.00
13422;BME280;6782;55.904;13.396;2023-02-19T05:46:02;100722.19;;;1.05;100.00
13422;BME280;6782;55.904;13.396;2023-02-19T05:48:29;100740.44;;;1.11;100.00
13422;BME280;6782;55.904;13.396;2023-02-19T05:51:00;100741.38;;;1.14;100.00
13422;BME280;6782;55.904;13.396;2023-02-19T05:53:28;100739.56;;;1.09;100.00
13422;BME280;6782;55.904;13.396;2023-02-19T05:55:55;100743.81;;;1.04;100.00
13422;BME280;6782;55.904;13.396;2023-02-19T05:58:22;100749.16;;;1.13;100.00
13422;BME280;6782;55.904;13.396;2023-02-19T06:00:51;100747.41;;;1.12;100.00
13422;BME280;6782;55.904;13.396;2023-02-19T06:03:19;100753.38;;;1.06;100.00
13422;BME280;6782;55.904;13.396;2023-02-19T06:05:46;100757.88;;;1.18;100.00
13422;BME280;6782;55.904;13.396;2023-02-19T06:08:14;100768.38;;;1.25;100.00
13422;BME280;6782;55.904;13.396;2023-02-19T06:10:42;100772.63;;;1.20;100.00
13422;BME280;6782;55.904;13.396;2023-02-19T06:13:24;100775.31;;;1.26;100.00
13422;BME280;6782;55.904;13.396;2023-02-19T06:15:53;100767.34;;;1.13;100.00
13422;BME280;6782;55.904;13.396;2023-02-19T06:18:21;100762.97;;;1.12;100.00
13422;BME280;6782;55.904;13.396;2023-02-19T06:20:48;100768.13;;;1.09;100.00
13422;BME280;6782;55.904;13.396;2023-02-19T06:23:15;100782.19;;;1.23;100.00
13422;BME280;6782;55.904;13.396;2023-02-19T06:25:43;100787.34;;;1.20;100.00
13422;BME280;6782;55.904;13.396;2023-02-19T06:28:11;100785.53;;;1.16;100.00
13422;BME280;6782;55.904;13.396;2023-02-19T06:30:38;100780.16;;;1.04;100.00
13422;BME280;6782;55.904;13.396;2023-02-19T06:33:07;100779.28;;;1.03;100.00
13422;BME280;6782;55.904;13.396;2023-02-19T06:35:35;100797.63;;;1.14;100.00
13422;BME280;6782;55.904;13.396;2023-02-19T06:38:03;100785.31;;;1.01;100.00
13422;BME280;6782;55.904;13.396;2023-02-19T06:40:31;100781.88;;;1.02;100.00
13422;BME280;6782;55.904;13.396;2023-02-19T06:42:59;100787.19;;;1.11;100.00
13422;BME280;6782;55.904;13.396;2023-02-19T06:45:26;100785.34;;;1.04;100.00
13422;BME280;6782;55.904;13.396;2023-02-19T06:47:54;100796.69;;;1.09;100.00
13422;BME280;6782;55.904;13.396;2023-02-19T06:50:23;100811.72;;;1.28;100.00
13422;BME280;6782;55.904;13.396;2023-02-19T06:52:50;100810.09;;;1.36;100.00
13422;BME280;6782;55.904;13.396;2023-02-19T06:55:17;100828.31;;;1.39;100.00
13422;BME280;6782;55.904;13.396;2023-02-19T06:57:44;100813.59;;;1.38;100.00
13422;BME280;6782;55.904;13.396;2023-02-19T07:00:12;100820.50;;;1.39;100.00
13422;BME280;6782;55.904;13.396;2023-02-19T07:02:39;100825.88;;;1.48;100.00
13422;BME280;6782;55.904;13.396;2023-02-19T07:05:07;100825.91;;;1.51;100.00
13422;BME280;6782;55.904;13.396;2023-02-19T07:07:35;100820.84;;;1.60;100.00
13422;BME280;6782;55.904;13.396;2023-02-19T07:10:04;100832.06;;;1.56;100.00
13422;BME280;6782;55.904;13.396;2023-02-19T07:12:32;100826.06;;;1.63;100.00
13422;BME280;6782;55.904;13.396;2023-02-19T07:14:59;100813.91;;;1.62;100.00
13422;BME280;6782;55.904;13.396;2023-02-19T07:17:27;100812.09;;;1.55;100.00
13422;BME280;6782;55.904;13.396;2023-02-19T07:19:54;100817.53;;;1.72;100.00
13422;BME280;6782;55.904;13.396;2023-02-19T07:22:22;100827.16;;;1.80;100.00
13422;BME280;6782;55.904;13.396;2023-02-19T07:24:51;100814.22;;;1.83;100.00
13422;BME280;6782;55.904;13.396;2023-02-19T07:27:18;100807.16;;;1.73;100.00
13422;BME280;6782;55.904;13.396;2023-02-19T07:29:46;100802.03;;;1.79;100.00
13422;BME280;6782;55.904;13.396;2023-02-19T07:32:13;100801.13;;;1.77;100.00
13422;BME280;6782;55.904;13.396;2023-02-19T07:34:40;100803.94;;;1.96;100.00
13422;BME280;6782;55.904;13.396;2023-02-19T07:37:08;100793.59;;;1.99;100.00
13422;BME280;6782;55.904;13.396;2023-02-19T07:39:35;100787.66;;;2.09;100.00
13422;BME280;6782;55.904;13.396;2023-02-19T07:42:05;100785.84;;;2.03;100.00
13422;BME280;6782;55.904;13.396;2023-02-19T07:44:32;100772.91;;;2.08;100.00
13422;BME280;6782;55.904;13.396;2023-02-19T07:47:00;100763.34;;;2.07;100.00
13422;BME280;6782;55.904;13.396;2023-02-19T07:49:27;100762.63;;;2.20;100.00
13422;BME280;6782;55.904;13.396;2023-02-19T07:51:55;100742.69;;;2.20;100.00
13422;BME280;6782;55.904;13.396;2023-02-19T07:54:22;100733.19;;;2.22;100.00
13422;BME280;6782;55.904;13.396;2023-02-19T07:56:50;100715.88;;;2.26;100.00
13422;BME280;6782;55.904;13.396;2023-02-19T07:59:20;100705.53;;;2.35;100.00
13422;BME280;6782;55.904;13.396;2023-02-19T08:01:47;100684.63;;;2.23;100.00
13422;BME280;6782;55.904;13.396;2023-02-19T08:04:47;100682.19;;;2.41;100.00
13422;BME280;6782;55.904;13.396;2023-02-19T08:07:15;100655.19;;;2.30;100.00
13422;BME280;6782;55.904;13.396;2023-02-19T08:09:42;100644.72;;;2.24;100.00
13422;BME280;6782;55.904;13.396;2023-02-19T08:12:10;100630.88;;;2.23;100.00
13422;BME280;6782;55.904;13.396;2023-02-19T08:14:56;100619.63;;;2.26;100.00
13422;BME280;6782;55.904;13.396;2023-02-19T08:17:24;100623.19;;;2.41;100.00
13422;BME280;6782;55.904;13.396;2023-02-19T08:19:51;100585.78;;;2.26;100.00
13422;BME280;6782;55.904;13.396;2023-02-19T08:22:18;100582.34;;;2.31;100.00
13422;BME280;6782;55.904;13.396;2023-02-19T08:24:45;100584.16;;;2.40;100.00
13422;BME280;6782;55.904;13.396;2023-02-19T08:27:15;100561.56;;;2.33;100.00
13422;BME280;6782;55.904;13.396;2023-02-19T08:29:42;100565.91;;;2.37;100.00
13422;BME280;6782;55.904;13.396;2023-02-19T08:32:11;100561.69;;;2.51;100.00
13422;BME280;6782;55.904;13.396;2023-02-19T08:34:39;100546.09;;;2.54;100.00
13422;BME280;6782;55.904;13.396;2023-02-19T08:37:06;100532.19;;;2.55;100.00
13422;BME280;6782;55.904;13.396;2023-02-19T08:39:33;100532.25;;;2.67;100.00
13422;BME280;6782;55.904;13.396;2023-02-19T08:42:01;100519.31;;;2.79;100.00
13422;BME280;6782;55.904;13.396;2023-02-19T08:44:28;100483.69;;;2.75;100.00
13422;BME280;6782;55.904;13.396;2023-02-19T08:46:55;100478.53;;;2.84;100.00
13422;BME280;6782;55.904;13.396;2023-02-19T08:49:26;100480.28;;;2.91;100.00
13422;BME280;6782;55.904;13.396;2023-02-19T08:51:53;100462.91;;;2.90;100.00
13422;BME280;6782;55.904;13.396;2023-02-19T08:54:21;100453.38;;;2.94;100.00
13422;BME280;6782;55.904;13.396;2023-02-19T08:56:49;100442.97;;;2.98;100.00
13422;BME280;6782;55.904;13.396;2023-02-19T08:59:16;100419.50;;;2.89;100.00
13422;BME280;6782;55.904;13.396;2023-02-19T09:01:45;100449.97;;;3.27;100.00
13422;BME280;6782;55.904;13.396;2023-02-19T09:04:12;100428.25;;;3.22;100.00
13422;BME280;6782;55.904;13.396;2023-02-19T09:06:40;100433.47;;;3.40;100.00
13422;BME280;6782;55.904;13.396;2023-02-19T09:09:08;100419.59;;;3.44;100.00
13422;BME280;6782;55.904;13.396;2023-02-19T09:11:37;100396.97;;;3.35;100.00
13422;BME280;6782;55.904;13.396;2023-02-19T09:14:04;100430.88;;;3.61;100.00
13422;BME280;6782;55.904;13.396;2023-02-19T09:16:32;100376.13;;;3.55;100.00
13422;BME280;6782;55.904;13.396;2023-02-19T09:18:59;100382.16;;;3.75;100.00
13422;BME280;6782;55.904;13.396;2023-02-19T09:21:26;100369.16;;;3.72;100.00
13422;BME280;6782;55.904;13.396;2023-02-19T09:23:55;100363.06;;;3.79;100.00
13422;BME280;6782;55.904;13.396;2023-02-19T09:26:24;100338.72;;;3.77;100.00
13422;BME280;6782;55.904;13.396;2023-02-19T09:28:51;100340.41;;;3.89;100.00
13422;BME280;6782;55.904;13.396;2023-02-19T09:31:18;100313.47;;;3.93;100.00
13422;BME280;6782;55.904;13.396;2023-02-19T09:33:46;100322.94;;;4.09;100.00
13422;BME280;6782;55.904;13.396;2023-02-19T09:36:15;100300.34;;;4.06;100.00
13422;BME280;6782;55.904;13.396;2023-02-19T09:38:43;100266.47;;;4.02;100.00
13422;BME280;6782;55.904;13.396;2023-02-19T09:41:17;100276.81;;;4.20;100.00
13422;BME280;6782;55.904;13.396;2023-02-19T09:43:48;100270.66;;;4.33;100.00
13422;BME280;6782;55.904;13.396;2023-02-19T09:46:23;100247.13;;;4.34;100.00
13422;BME280;6782;55.904;13.396;2023-02-19T09:48:54;100208.03;;;4.28;100.00
13422;BME280;6782;55.904;13.396;2023-02-19T09:51:26;100140.38;;;4.01;100.00
13422;BME280;6782;55.904;13.396;2023-02-19T09:53:55;100144.59;;;4.17;100.00
13422;BME280;6782;55.904;13.396;2023-02-19T09:56:26;100114.25;;;4.04;100.00
13422;BME280;6782;55.904;13.396;2023-02-19T09:58:56;100123.72;;;4.20;100.00
13422;BME280;6782;55.904;13.396;2023-02-19T10:01:27;100127.00;;;4.47;100.00
13422;BME280;6782;55.904;13.396;2023-02-19T10:03:56;100060.19;;;4.26;100.00
13422;BME280;6782;55.904;13.396;2023-02-19T10:06:26;100042.75;;;4.28;100.00
13422;BME280;6782;55.904;13.396;2023-02-19T10:09:00;100007.13;;;4.22;100.00
13422;BME280;6782;55.904;13.396;2023-02-19T10:11:30;99974.13;;;4.18;100.00
13422;BME280;6782;55.904;13.396;2023-02-19T10:14:04;100006.94;;;4.40;100.00
13422;BME280;6782;55.904;13.396;2023-02-19T10:16:35;99995.41;;;4.61;100.00
13422;BME280;6782;55.904;13.396;2023-02-19T10:19:09;99995.97;;;4.86;100.00
13422;BME280;6782;55.904;13.396;2023-02-19T10:21:37;99931.41;;;4.97;100.00
13422;BME280;6782;55.904;13.396;2023-02-19T10:24:05;99797.50;;;4.83;100.00
13422;BME280;6782;55.904;13.396;2023-02-19T10:26:34;99760.84;;;4.89;100.00
13422;BME280;6782;55.904;13.396;2023-02-19T10:29:02;99763.38;;;4.93;100.00
13422;BME280;6782;55.904;13.396;2023-02-19T10:31:32;99711.78;;;5.06;100.00
13422;BME280;6782;55.904;13.396;2023-02-19T10:34:00;99643.97;;;5.00;100.00
13422;BME280;6782;55.904;13.396;2023-02-19T10:36:31;99522.38;;;4.84;100.00
13422;BME280;6782;55.904;13.396;2023-02-19T10:38:59;99476.50;;;4.72;100.00
13422;BME280;6782;55.904;13.396;2023-02-19T10:41:28;99418.56;;;4.54;100.00
13422;BME280;6782;55.904;13.396;2023-02-19T10:44:03;99487.53;;;4.85;100.00
13422;BME280;6782;55.904;13.396;2023-02-19T10:46:34;99522.94;;;4.99;100.00
13422;BME280;6782;55.904;13.396;2023-02-19T10:49:03;99554.84;;;5.15;100.00
13422;BME280;6782;55.904;13.396;2023-02-19T10:51:34;99456.69;;;5.02;100.00
13422;BME280;6782;55.904;13.396;2023-02-19T10:54:04;99379.69;;;4.80;100.00
13422;BME280;6782;55.904;13.396;2023-02-19T10:56:32;99397.66;;;4.93;100.00
13422;BME280;6782;55.904;13.396;2023-02-19T10:59:25;99390.03;;;4.84;100.00
13422;BME280;6782;55.904;13.396;2023-02-19T11:01:53;99448.16;;;4.94;100.00
13422;BME280;6782;55.904;13.396;2023-02-19T11:04:21;99416.00;;;4.92;100.00
13422;BME280;6782;55.904;13.396;2023-02-19T11:06:49;99364.28;;;4.68;100.00
13422;BME280;6782;55.904;13.396;2023-02-19T11:09:27;99376.41;;;4.72;100.00
13422;BME280;6782;55.904;13.396;2023-02-19T11:11:55;99412.91;;;4.75;100.00
13422;BME280;6782;55.904;13.396;2023-02-19T11:14:28;99394.78;;;4.66;100.00
13422;BME280;6782;55.904;13.396;2023-02-19T11:16:58;99419.81;;;4.76;100.00
13422;BME280;6782;55.904;13.396;2023-02-19T11:19:33;99467.97;;;5.04;100.00
13422;BME280;6782;55.904;13.396;2023-02-19T11:22:18;99306.81;;;5.06;100.00
13422;BME280;6782;55.904;13.396;2023-02-19T11:24:47;99267.16;;;5.24;100.00
13422;BME280;6782;55.904;13.396;2023-02-19T11:27:18;99225.97;;;5.34;100.00
13422;BME280;6782;55.904;13.396;2023-02-19T11:29:48;99152.66;;;5.38;100.00
13422;BME280;6782;55.904;13.396;2023-02-19T11:32:25;99008.91;;;5.38;100.00
13422;BME280;6782;55.904;13.396;2023-02-19T11:35:18;98798.84;;;5.16;100.00
13422;BME280;6782;55.904;13.396;2023-02-19T11:37:56;98725.78;;;5.13;100.00
13422;BME280;6782;55.904;13.396;2023-02-19T11:40:39;98749.91;;;5.21;100.00
13422;BME280;6782;55.904;13.396;2023-02-19T11:46:08;98815.25;;;5.20;100.00
13422;BME280;6782;55.904;13.396;2023-02-19T11:48:44;98963.38;;;5.45;100.00
13422;BME280;6782;55.904;13.396;2023-02-19T11:51:37;98914.63;;;5.44;100.00
13422;BME280;6782;55.904;13.396;2023-02-19T11:54:28;98945.13;;;5.44;100.00
13422;BME280;6782;55.904;13.396;2023-02-19T11:57:05;99021.38;;;5.58;100.00
13422;BME280;6782;55.904;13.396;2023-02-19T11:59:41;98912.38;;;5.32;100.00
13422;BME280;6782;55.904;13.396;2023-02-19T12:02:36;99010.91;;;5.58;100.00
13422;BME280;6782;55.904;13.396;2023-02-19T12:05:22;98884.31;;;5.39;100.00
13422;BME280;6782;55.904;13.396;2023-02-19T12:11:13;98836.69;;;5.55;100.00
13422;BME280;6782;55.904;13.396;2023-02-19T12:14:02;98812.75;;;5.67;100.00
13422;BME280;6782;55.904;13.396;2023-02-19T12:16:38;98700.81;;;5.54;100.00
13422;BME280;6782;55.904;13.396;2023-02-19T12:19:27;98903.16;;;5.75;100.00
13422;BME280;6782;55.904;13.396;2023-02-19T12:22:10;98917.63;;;5.86;100.00
13422;BME280;6782;55.904;13.396;2023-02-19T12:25:05;98817.47;;;5.83;100.00
13422;BME280;6782;55.904;13.396;2023-02-19T12:27:48;98841.91;;;5.82;100.00
13422;BME280;6782;55.904;13.396;2023-02-19T12:30:28;98878.44;;;5.85;100.00
13422;BME280;6782;55.904;13.396;2023-02-19T12:33:19;98956.31;;;6.03;100.00
13422;BME280;6782;55.904;13.396;2023-02-19T12:35:59;98941.75;;;5.94;100.00
13422;BME280;6782;55.904;13.396;2023-02-19T12:38:31;99009.13;;;5.88;100.00
13422;BME280;6782;55.904;13.396;2023-02-19T12:41:17;99073.28;;;5.99;100.00
13422;BME280;6782;55.904;13.396;2023-02-19T12:43:52;99072.66;;;5.91;100.00
13422;BME280;6782;55.904;13.396;2023-02-19T12:46:23;98997.00;;;5.84;100.00
13422;BME280;6782;55.904;13.396;2023-02-19T12:48:56;98930.91;;;5.79;100.00
13422;BME280;6782;55.904;13.396;2023-02-19T12:51:35;99091.03;;;5.90;100.00
13422;BME280;6782;55.904;13.396;2023-02-19T12:54:11;99242.03;;;6.14;100.00
13422;BME280;6782;55.904;13.396;2023-02-19T12:56:44;99208.38;;;6.02;100.00
13422;BME280;6782;55.904;13.396;2023-02-19T12:59:14;99349.94;;;6.23;100.00
13422;BME280;6782;55.904;13.396;2023-02-19T13:01:49;99394.25;;;6.31;100.00
13422;BME280;6782;55.904;13.396;2023-02-19T13:04:24;99266.22;;;6.22;100.00
13422;BME280;6782;55.904;13.396;2023-02-19T13:07:19;99559.78;;;6.41;100.00
13422;BME280;6782;55.904;13.396;2023-02-19T13:09:56;99702.44;;;6.61;100.00
13422;BME280;6782;55.904;13.396;2023-02-19T13:12:28;99524.91;;;6.05;100.00
13422;BME280;6782;55.904;13.396;2023-02-19T13:14:58;99750.63;;;6.16;100.00
13422;BME280;6782;55.904;13.396;2023-02-19T13:17:34;99772.00;;;5.95;100.00
13422;BME280;6782;55.904;13.396;2023-02-19T13:20:14;100015.63;;;6.32;100.00
13422;BME280;6782;55.904;13.396;2023-02-19T13:22:54;99945.72;;;5.88;100.00